sensor_id;sensor_type;location;lat;lon;timestamp;P1;durP1;ratioP1;P2;durP2;ratioP2
151;SDS011;68;48.792;9.164;2022-10-29T00:00:28;17.02;;;5.78;;
151;SDS011;68;48.792;9.164;2022-10-29T00:02:56;15.60;;;6.40;;
151;SDS011;68;48.792;9.164;2022-10-29T00:05:23;11.63;;;5.80;;
151;SDS011;68;48.792;9.164;2022-10-29T00:07:50;18.10;;;6.87;;
151;SDS011;68;48.792;9.164;2022-10-29T00:10:17;17.23;;;6.03;;
151;SDS011;68;48.792;9.164;2022-10-29T00:12:44;15.10;;;6.20;;
151;SDS011;68;48.792;9.164;2022-10-29T00:15:10;15.50;;;6.00;;
151;SDS011;68;48.792;9.164;2022-10-29T00:17:37;16.00;;;7.17;;
151;SDS011;68;48.792;9.164;2022-10-29T00:20:06;23.87;;;7.40;;
151;SDS011;68;48.792;9.164;2022-10-29T00:22:34;13.70;;;6.30;;
151;SDS011;68;48.792;9.164;2022-10-29T00:25:01;14.23;;;6.53;;
151;SDS011;68;48.792;9.164;2022-10-29T00:27:27;20.17;;;7.30;;
151;SDS011;68;48.792;9.164;2022-10-29T00:29:54;15.37;;;7.17;;
151;SDS011;68;48.792;9.164;2022-10-29T00:32:21;16.87;;;8.17;;
151;SDS011;68;48.792;9.164;2022-10-29T00:34:48;19.97;;;7.87;;
151;SDS011;68;48.792;9.164;2022-10-29T00:37:16;21.90;;;7.93;;
151;SDS011;68;48.792;9.164;2022-10-29T00:39:43;16.92;;;6.95;;
151;SDS011;68;48.792;9.164;2022-10-29T00:42:12;20.48;;;7.80;;
151;SDS011;68;48.792;9.164;2022-10-29T00:44:39;15.18;;;7.40;;
151;SDS011;68;48.792;9.164;2022-10-29T00:47:12;18.25;;;7.10;;
151;SDS011;68;48.792;9.164;2022-10-29T00:49:44;22.13;;;7.10;;
151;SDS011;68;48.792;9.164;2022-10-29T00:52:12;15.50;;;5.93;;
151;SDS011;68;48.792;9.164;2022-10-29T00:54:42;15.57;;;6.57;;
151;SDS011;68;48.792;9.164;2022-10-29T00:57:11;26.35;;;6.22;;
151;SDS011;68;48.792;9.164;2022-10-29T00:59:42;17.38;;;6.80;;
151;SDS011;68;48.792;9.164;2022-10-29T01:02:10;17.40;;;6.20;;
151;SDS011;68;48.792;9.164;2022-10-29T01:04:37;20.48;;;6.70;;
151;SDS011;68;48.792;9.164;2022-10-29T01:07:05;10.90;;;6.47;;
151;SDS011;68;48.792;9.164;2022-10-29T01:09:32;19.67;;;6.90;;
151;SDS011;68;48.792;9.164;2022-10-29T01:12:04;24.17;;;7.20;;
151;SDS011;68;48.792;9.164;2022-10-29T01:14:45;14.02;;;6.93;;
151;SDS011;68;48.792;9.164;2022-10-29T01:17:20;16.73;;;7.20;;
151;SDS011;68;48.792;9.164;2022-10-29T01:19:59;18.55;;;6.82;;
151;SDS011;68;48.792;9.164;2022-10-29T01:22:52;26.73;;;7.65;;
151;SDS011;68;48.792;9.164;2022-10-29T01:25:35;20.15;;;8.48;;
151;SDS011;68;48.792;9.164;2022-10-29T01:28:27;16.65;;;6.60;;
151;SDS011;68;48.792;9.164;2022-10-29T01:31:10;14.82;;;6.82;;
151;SDS011;68;48.792;9.164;2022-10-29T01:33:45;15.95;;;7.85;;
151;SDS011;68;48.792;9.164;2022-10-29T01:36:20;12.25;;;6.45;;
151;SDS011;68;48.792;9.164;2022-10-29T01:38:55;17.52;;;6.70;;
151;SDS011;68;48.792;9.164;2022-10-29T01:41:30;14.15;;;7.25;;
151;SDS011;68;48.792;9.164;2022-10-29T01:44:03;17.38;;;7.78;;
151;SDS011;68;48.792;9.164;2022-10-29T01:46:39;22.20;;;8.40;;
151;SDS011;68;48.792;9.164;2022-10-29T01:49:12;23.07;;;7.77;;
151;SDS011;68;48.792;9.164;2022-10-29T01:51:42;16.80;;;7.15;;
151;SDS011;68;48.792;9.164;2022-10-29T01:54:10;14.00;;;7.22;;
151;SDS011;68;48.792;9.164;2022-10-29T01:56:37;14.23;;;7.32;;
151;SDS011;68;48.792;9.164;2022-10-29T01:59:05;17.90;;;7.10;;
151;SDS011;68;48.792;9.164;2022-10-29T02:01:41;19.73;;;7.30;;
151;SDS011;68;48.792;9.164;2022-10-29T02:04:26;16.58;;;7.45;;
151;SDS011;68;48.792;9.164;2022-10-29T02:07:16;19.58;;;7.50;;
151;SDS011;68;48.792;9.164;2022-10-29T02:09:52;14.97;;;7.10;;
151;SDS011;68;48.792;9.164;2022-10-29T02:12:24;23.75;;;7.22;;
151;SDS011;68;48.792;9.164;2022-10-29T02:14:56;15.07;;;6.80;;
151;SDS011;68;48.792;9.164;2022-10-29T02:17:30;19.52;;;6.70;;
151;SDS011;68;48.792;9.164;2022-10-29T02:19:57;14.73;;;6.65;;
151;SDS011;68;48.792;9.164;2022-10-29T02:22:27;13.10;;;7.18;;
151;SDS011;68;48.792;9.164;2022-10-29T02:24:54;16.42;;;7.85;;
151;SDS011;68;48.792;9.164;2022-10-29T02:27:20;21.73;;;7.35;;
151;SDS011;68;48.792;9.164;2022-10-29T02:29:47;15.93;;;7.03;;
151;SDS011;68;48.792;9.164;2022-10-29T02:32:14;17.15;;;7.53;;
151;SDS011;68;48.792;9.164;2022-10-29T02:34:42;18.77;;;7.05;;
151;SDS011;68;48.792;9.164;2022-10-29T02:37:08;17.98;;;8.02;;
151;SDS011;68;48.792;9.164;2022-10-29T02:39:35;25.08;;;7.43;;
151;SDS011;68;48.792;9.164;2022-10-29T02:42:02;20.02;;;7.90;;
151;SDS011;68;48.792;9.164;2022-10-29T02:44:29;23.83;;;7.53;;
151;SDS011;68;48.792;9.164;2022-10-29T02:46:56;14.70;;;7.25;;
151;SDS011;68;48.792;9.164;2022-10-29T02:49:22;14.20;;;6.78;;
151;SDS011;68;48.792;9.164;2022-10-29T02:51:50;14.27;;;7.30;;
151;SDS011;68;48.792;9.164;2022-10-29T02:54:17;18.20;;;7.53;;
151;SDS011;68;48.792;9.164;2022-10-29T02:56:44;26.40;;;7.57;;
151;SDS011;68;48.792;9.164;2022-10-29T02:59:10;17.38;;;7.50;;
151;SDS011;68;48.792;9.164;2022-10-29T03:01:37;15.88;;;6.88;;
151;SDS011;68;48.792;9.164;2022-10-29T03:04:04;21.77;;;7.68;;
151;SDS011;68;48.792;9.164;2022-10-29T03:06:31;19.25;;;7.40;;
151;SDS011;68;48.792;9.164;2022-10-29T03:08:59;11.95;;;6.95;;
151;SDS011;68;48.792;9.164;2022-10-29T03:11:25;18.43;;;7.03;;
151;SDS011;68;48.792;9.164;2022-10-29T03:13:52;19.03;;;6.80;;
151;SDS011;68;48.792;9.164;2022-10-29T03:16:19;20.58;;;7.28;;
151;SDS011;68;48.792;9.164;2022-10-29T03:18:45;11.20;;;6.27;;
151;SDS011;68;48.792;9.164;2022-10-29T03:21:12;11.35;;;6.85;;
151;SDS011;68;48.792;9.164;2022-10-29T03:23:39;14.23;;;6.40;;
151;SDS011;68;48.792;9.164;2022-10-29T03:26:07;18.47;;;6.80;;
151;SDS011;68;48.792;9.164;2022-10-29T03:28:34;15.63;;;7.22;;
151;SDS011;68;48.792;9.164;2022-10-29T03:31:01;18.45;;;6.57;;
151;SDS011;68;48.792;9.164;2022-10-29T03:33:28;23.53;;;6.60;;
151;SDS011;68;48.792;9.164;2022-10-29T03:35:55;18.23;;;7.20;;
151;SDS011;68;48.792;9.164;2022-10-29T03:38:22;15.40;;;6.63;;
151;SDS011;68;48.792;9.164;2022-10-29T03:40:49;18.95;;;7.03;;
151;SDS011;68;48.792;9.164;2022-10-29T03:43:17;13.10;;;7.00;;
151;SDS011;68;48.792;9.164;2022-10-29T03:45:48;16.45;;;7.45;;
151;SDS011;68;48.792;9.164;2022-10-29T03:48:16;14.50;;;7.20;;
151;SDS011;68;48.792;9.164;2022-10-29T03:50:42;15.10;;;7.50;;
151;SDS011;68;48.792;9.164;2022-10-29T03:53:09;18.67;;;7.20;;
151;SDS011;68;48.792;9.164;2022-10-29T03:55:36;16.67;;;7.03;;
151;SDS011;68;48.792;9.164;2022-10-29T03:58:03;20.53;;;6.60;;
151;SDS011;68;48.792;9.164;2022-10-29T04:00:31;14.98;;;6.90;;
151;SDS011;68;48.792;9.164;2022-10-29T04:02:58;19.95;;;7.78;;
151;SDS011;68;48.792;9.164;2022-10-29T04:05:25;16.30;;;6.70;;
151;SDS011;68;48.792;9.164;2022-10-29T04:07:51;15.77;;;7.40;;
151;SDS011;68;48.792;9.164;2022-10-29T04:10:18;13.63;;;7.47;;
151;SDS011;68;48.792;9.164;2022-10-29T04:12:45;14.95;;;6.55;;
151;SDS011;68;48.792;9.164;2022-10-29T04:15:12;19.85;;;7.40;;
151;SDS011;68;48.792;9.164;2022-10-29T04:17:40;12.20;;;7.13;;
151;SDS011;68;48.792;9.164;2022-10-29T04:20:07;18.17;;;7.10;;
151;SDS011;68;48.792;9.164;2022-10-29T04:22:34;16.75;;;7.20;;
151;SDS011;68;48.792;9.164;2022-10-29T04:25:01;20.15;;;7.63;;
151;SDS011;68;48.792;9.164;2022-10-29T04:27:27;16.48;;;7.90;;
151;SDS011;68;48.792;9.164;2022-10-29T04:29:56;9.70;;;6.43;;
151;SDS011;68;48.792;9.164;2022-10-29T04:32:22;16.67;;;7.00;;
151;SDS011;68;48.792;9.164;2022-10-29T04:34:50;15.60;;;6.75;;
151;SDS011;68;48.792;9.164;2022-10-29T04:37:17;17.30;;;7.22;;
151;SDS011;68;48.792;9.164;2022-10-29T04:39:44;17.08;;;7.43;;
151;SDS011;68;48.792;9.164;2022-10-29T04:42:10;17.50;;;7.63;;
151;SDS011;68;48.792;9.164;2022-10-29T04:44:37;17.30;;;7.25;;
151;SDS011;68;48.792;9.164;2022-10-29T04:47:04;17.48;;;7.95;;
151;SDS011;68;48.792;9.164;2022-10-29T04:49:30;15.85;;;7.75;;
151;SDS011;68;48.792;9.164;2022-10-29T04:51:58;15.70;;;7.50;;
151;SDS011;68;48.792;9.164;2022-10-29T04:54:25;15.57;;;7.45;;
151;SDS011;68;48.792;9.164;2022-10-29T04:56:52;20.85;;;7.05;;
151;SDS011;68;48.792;9.164;2022-10-29T04:59:19;11.95;;;7.47;;
151;SDS011;68;48.792;9.164;2022-10-29T05:01:45;11.80;;;7.32;;
151;SDS011;68;48.792;9.164;2022-10-29T05:04:12;15.13;;;6.53;;
151;SDS011;68;48.792;9.164;2022-10-29T05:06:39;14.77;;;6.80;;
151;SDS011;68;48.792;9.164;2022-10-29T05:09:07;16.40;;;7.03;;
151;SDS011;68;48.792;9.164;2022-10-29T05:11:33;22.95;;;7.20;;
151;SDS011;68;48.792;9.164;2022-10-29T05:14:00;15.38;;;6.90;;
151;SDS011;68;48.792;9.164;2022-10-29T05:16:27;20.10;;;8.20;;
151;SDS011;68;48.792;9.164;2022-10-29T05:18:54;23.00;;;7.43;;
151;SDS011;68;48.792;9.164;2022-10-29T05:21:20;18.48;;;7.78;;
151;SDS011;68;48.792;9.164;2022-10-29T05:23:47;12.55;;;6.80;;
151;SDS011;68;48.792;9.164;2022-10-29T05:26:15;19.73;;;6.80;;
151;SDS011;68;48.792;9.164;2022-10-29T05:28:42;13.38;;;6.68;;
151;SDS011;68;48.792;9.164;2022-10-29T05:31:08;15.57;;;7.85;;
151;SDS011;68;48.792;9.164;2022-10-29T05:33:35;16.20;;;6.97;;
151;SDS011;68;48.792;9.164;2022-10-29T05:36:02;18.92;;;9.07;;
151;SDS011;68;48.792;9.164;2022-10-29T05:38:29;17.13;;;7.25;;
151;SDS011;68;48.792;9.164;2022-10-29T05:40:56;14.63;;;7.65;;
151;SDS011;68;48.792;9.164;2022-10-29T05:43:25;14.98;;;7.32;;
151;SDS011;68;48.792;9.164;2022-10-29T05:45:52;15.75;;;7.90;;
151;SDS011;68;48.792;9.164;2022-10-29T05:48:18;24.48;;;8.25;;
151;SDS011;68;48.792;9.164;2022-10-29T05:50:45;16.80;;;7.55;;
151;SDS011;68;48.792;9.164;2022-10-29T05:53:13;22.00;;;8.40;;
151;SDS011;68;48.792;9.164;2022-10-29T05:55:40;23.88;;;8.27;;
151;SDS011;68;48.792;9.164;2022-10-29T05:58:08;18.33;;;8.13;;
151;SDS011;68;48.792;9.164;2022-10-29T06:00:40;14.45;;;9.10;;
151;SDS011;68;48.792;9.164;2022-10-29T06:03:09;19.70;;;8.60;;
151;SDS011;68;48.792;9.164;2022-10-29T06:05:39;21.45;;;8.60;;
151;SDS011;68;48.792;9.164;2022-10-29T06:08:06;16.48;;;8.27;;
151;SDS011;68;48.792;9.164;2022-10-29T06:10:33;15.95;;;8.77;;
151;SDS011;68;48.792;9.164;2022-10-29T06:12:59;20.83;;;8.70;;
151;SDS011;68;48.792;9.164;2022-10-29T06:15:26;18.38;;;8.00;;
151;SDS011;68;48.792;9.164;2022-10-29T06:17:54;15.13;;;8.35;;
151;SDS011;68;48.792;9.164;2022-10-29T06:20:21;32.13;;;8.85;;
151;SDS011;68;48.792;9.164;2022-10-29T06:22:54;21.23;;;8.65;;
151;SDS011;68;48.792;9.164;2022-10-29T06:25:22;21.52;;;7.70;;
151;SDS011;68;48.792;9.164;2022-10-29T06:27:56;11.23;;;7.80;;
151;SDS011;68;48.792;9.164;2022-10-29T06:30:24;15.15;;;7.25;;
151;SDS011;68;48.792;9.164;2022-10-29T06:32:50;21.10;;;7.93;;
151;SDS011;68;48.792;9.164;2022-10-29T06:35:18;21.75;;;7.90;;
151;SDS011;68;48.792;9.164;2022-10-29T06:37:45;18.85;;;7.70;;
151;SDS011;68;48.792;9.164;2022-10-29T06:40:12;15.88;;;8.55;;
151;SDS011;68;48.792;9.164;2022-10-29T06:42:39;16.58;;;7.80;;
151;SDS011;68;48.792;9.164;2022-10-29T06:45:06;15.23;;;8.10;;
151;SDS011;68;48.792;9.164;2022-10-29T06:47:37;20.05;;;8.45;;
151;SDS011;68;48.792;9.164;2022-10-29T06:50:04;15.18;;;7.72;;
151;SDS011;68;48.792;9.164;2022-10-29T06:52:33;20.38;;;8.57;;
151;SDS011;68;48.792;9.164;2022-10-29T06:54:59;20.63;;;8.20;;
151;SDS011;68;48.792;9.164;2022-10-29T06:57:26;16.52;;;8.70;;
151;SDS011;68;48.792;9.164;2022-10-29T06:59:53;19.80;;;7.60;;
151;SDS011;68;48.792;9.164;2022-10-29T07:02:20;22.48;;;8.60;;
151;SDS011;68;48.792;9.164;2022-10-29T07:04:47;18.70;;;8.40;;
151;SDS011;68;48.792;9.164;2022-10-29T07:07:14;16.50;;;8.23;;
151;SDS011;68;48.792;9.164;2022-10-29T07:09:42;16.25;;;7.95;;
151;SDS011;68;48.792;9.164;2022-10-29T07:12:09;22.63;;;9.00;;
151;SDS011;68;48.792;9.164;2022-10-29T07:14:36;14.43;;;8.02;;
151;SDS011;68;48.792;9.164;2022-10-29T07:17:03;19.25;;;8.05;;
151;SDS011;68;48.792;9.164;2022-10-29T07:19:29;17.40;;;7.35;;
151;SDS011;68;48.792;9.164;2022-10-29T07:21:56;14.75;;;7.70;;
151;SDS011;68;48.792;9.164;2022-10-29T07:24:23;12.95;;;7.97;;
151;SDS011;68;48.792;9.164;2022-10-29T07:26:51;10.65;;;7.13;;
151;SDS011;68;48.792;9.164;2022-10-29T07:29:18;14.23;;;8.82;;
151;SDS011;68;48.792;9.164;2022-10-29T07:31:45;15.30;;;7.85;;
151;SDS011;68;48.792;9.164;2022-10-29T07:34:11;20.65;;;10.07;;
151;SDS011;68;48.792;9.164;2022-10-29T07:36:38;13.68;;;8.20;;
151;SDS011;68;48.792;9.164;2022-10-29T07:39:05;23.02;;;9.52;;
151;SDS011;68;48.792;9.164;2022-10-29T07:41:32;18.90;;;9.18;;
151;SDS011;68;48.792;9.164;2022-10-29T07:44:00;15.70;;;8.32;;
151;SDS011;68;48.792;9.164;2022-10-29T07:46:27;17.83;;;8.73;;
151;SDS011;68;48.792;9.164;2022-10-29T07:48:53;19.63;;;9.45;;
151;SDS011;68;48.792;9.164;2022-10-29T07:51:20;20.17;;;8.40;;
151;SDS011;68;48.792;9.164;2022-10-29T07:53:47;19.25;;;8.77;;
151;SDS011;68;48.792;9.164;2022-10-29T07:56:13;18.48;;;9.55;;
151;SDS011;68;48.792;9.164;2022-10-29T07:58:40;19.50;;;8.43;;
151;SDS011;68;48.792;9.164;2022-10-29T08:01:08;18.77;;;8.20;;
151;SDS011;68;48.792;9.164;2022-10-29T08:03:35;21.63;;;9.17;;
151;SDS011;68;48.792;9.164;2022-10-29T08:06:02;21.70;;;9.73;;
151;SDS011;68;48.792;9.164;2022-10-29T08:08:29;23.80;;;9.68;;
151;SDS011;68;48.792;9.164;2022-10-29T08:10:58;17.15;;;9.52;;
151;SDS011;68;48.792;9.164;2022-10-29T08:13:26;17.77;;;9.00;;
151;SDS011;68;48.792;9.164;2022-10-29T08:15:53;17.83;;;9.43;;
151;SDS011;68;48.792;9.164;2022-10-29T08:18:21;24.63;;;9.67;;
151;SDS011;68;48.792;9.164;2022-10-29T08:20:48;20.53;;;9.07;;
151;SDS011;68;48.792;9.164;2022-10-29T08:23:15;22.23;;;9.30;;
151;SDS011;68;48.792;9.164;2022-10-29T08:25:42;17.33;;;8.40;;
151;SDS011;68;48.792;9.164;2022-10-29T08:28:09;27.90;;;9.17;;
151;SDS011;68;48.792;9.164;2022-10-29T08:30:37;14.97;;;9.10;;
151;SDS011;68;48.792;9.164;2022-10-29T08:33:04;18.80;;;8.60;;
151;SDS011;68;48.792;9.164;2022-10-29T08:35:33;17.03;;;8.77;;
151;SDS011;68;48.792;9.164;2022-10-29T08:37:59;27.77;;;8.87;;
151;SDS011;68;48.792;9.164;2022-10-29T08:40:27;18.07;;;9.10;;
151;SDS011;68;48.792;9.164;2022-10-29T08:43:09;22.70;;;8.40;;
151;SDS011;68;48.792;9.164;2022-10-29T08:45:51;17.23;;;8.80;;
151;SDS011;68;48.792;9.164;2022-10-29T08:48:21;20.50;;;8.27;;
151;SDS011;68;48.792;9.164;2022-10-29T08:50:57;18.90;;;7.97;;
151;SDS011;68;48.792;9.164;2022-10-29T08:53:31;13.80;;;7.87;;
151;SDS011;68;48.792;9.164;2022-10-29T08:56:02;18.80;;;8.57;;
151;SDS011;68;48.792;9.164;2022-10-29T08:58:32;17.70;;;7.47;;
151;SDS011;68;48.792;9.164;2022-10-29T09:01:02;18.60;;;6.63;;
151;SDS011;68;48.792;9.164;2022-10-29T09:03:34;16.10;;;6.93;;
151;SDS011;68;48.792;9.164;2022-10-29T09:06:05;26.27;;;7.50;;
151;SDS011;68;48.792;9.164;2022-10-29T09:08:38;12.83;;;7.30;;
151;SDS011;68;48.792;9.164;2022-10-29T09:11:18;20.60;;;6.93;;
151;SDS011;68;48.792;9.164;2022-10-29T09:14:00;13.67;;;6.53;;
151;SDS011;68;48.792;9.164;2022-10-29T09:16:37;20.60;;;7.40;;
151;SDS011;68;48.792;9.164;2022-10-29T09:19:13;13.57;;;6.80;;
151;SDS011;68;48.792;9.164;2022-10-29T09:21:53;17.33;;;6.57;;
151;SDS011;68;48.792;9.164;2022-10-29T09:24:28;19.43;;;6.90;;
151;SDS011;68;48.792;9.164;2022-10-29T09:27:02;15.17;;;6.60;;
151;SDS011;68;48.792;9.164;2022-10-29T09:32:28;15.87;;;6.40;;
151;SDS011;68;48.792;9.164;2022-10-29T09:34:59;23.13;;;6.37;;
151;SDS011;68;48.792;9.164;2022-10-29T09:37:34;18.07;;;6.67;;
151;SDS011;68;48.792;9.164;2022-10-29T09:40:12;23.30;;;7.20;;
151;SDS011;68;48.792;9.164;2022-10-29T09:42:43;20.80;;;7.20;;
151;SDS011;68;48.792;9.164;2022-10-29T09:45:13;21.53;;;6.87;;
151;SDS011;68;48.792;9.164;2022-10-29T09:47:44;16.17;;;6.23;;
151;SDS011;68;48.792;9.164;2022-10-29T09:50:20;13.27;;;6.63;;
151;SDS011;68;48.792;9.164;2022-10-29T09:52:53;15.13;;;6.30;;
151;SDS011;68;48.792;9.164;2022-10-29T09:55:22;17.13;;;7.57;;
151;SDS011;68;48.792;9.164;2022-10-29T09:57:51;10.33;;;6.20;;
151;SDS011;68;48.792;9.164;2022-10-29T10:00:22;18.37;;;7.07;;
151;SDS011;68;48.792;9.164;2022-10-29T10:02:51;18.63;;;5.83;;
151;SDS011;68;48.792;9.164;2022-10-29T10:05:24;15.33;;;6.20;;
151;SDS011;68;48.792;9.164;2022-10-29T10:08:07;23.20;;;6.40;;
151;SDS011;68;48.792;9.164;2022-10-29T10:10:36;13.67;;;6.30;;
151;SDS011;68;48.792;9.164;2022-10-29T10:13:15;12.50;;;5.60;;
151;SDS011;68;48.792;9.164;2022-10-29T10:15:47;12.20;;;5.90;;
151;SDS011;68;48.792;9.164;2022-10-29T10:18:18;14.17;;;5.70;;
151;SDS011;68;48.792;9.164;2022-10-29T10:20:47;23.40;;;6.13;;
151;SDS011;68;48.792;9.164;2022-10-29T10:23:27;17.37;;;6.87;;
151;SDS011;68;48.792;9.164;2022-10-29T10:25:56;14.07;;;5.63;;
151;SDS011;68;48.792;9.164;2022-10-29T10:28:25;14.83;;;5.97;;
151;SDS011;68;48.792;9.164;2022-10-29T10:31:04;18.33;;;6.20;;
151;SDS011;68;48.792;9.164;2022-10-29T10:33:33;18.40;;;6.77;;
151;SDS011;68;48.792;9.164;2022-10-29T10:36:03;17.13;;;6.27;;
151;SDS011;68;48.792;9.164;2022-10-29T10:38:40;15.70;;;5.80;;
151;SDS011;68;48.792;9.164;2022-10-29T10:41:10;19.97;;;5.57;;
151;SDS011;68;48.792;9.164;2022-10-29T10:43:40;17.23;;;6.27;;
151;SDS011;68;48.792;9.164;2022-10-29T10:46:10;19.17;;;5.97;;
151;SDS011;68;48.792;9.164;2022-10-29T10:48:44;15.13;;;5.97;;
151;SDS011;68;48.792;9.164;2022-10-29T10:51:26;12.63;;;6.27;;
151;SDS011;68;48.792;9.164;2022-10-29T10:53:56;14.80;;;5.83;;
151;SDS011;68;48.792;9.164;2022-10-29T10:56:24;16.23;;;5.50;;
151;SDS011;68;48.792;9.164;2022-10-29T10:58:54;14.47;;;6.07;;
151;SDS011;68;48.792;9.164;2022-10-29T11:01:27;24.27;;;5.73;;
151;SDS011;68;48.792;9.164;2022-10-29T11:04:01;9.50;;;4.93;;
151;SDS011;68;48.792;9.164;2022-10-29T11:06:38;11.40;;;6.10;;
151;SDS011;68;48.792;9.164;2022-10-29T11:09:10;13.50;;;5.50;;
151;SDS011;68;48.792;9.164;2022-10-29T11:11:46;17.27;;;6.27;;
151;SDS011;68;48.792;9.164;2022-10-29T11:14:19;12.53;;;5.20;;
151;SDS011;68;48.792;9.164;2022-10-29T11:16:51;19.53;;;6.93;;
151;SDS011;68;48.792;9.164;2022-10-29T11:19:21;20.53;;;6.87;;
151;SDS011;68;48.792;9.164;2022-10-29T11:22:02;17.03;;;6.73;;
151;SDS011;68;48.792;9.164;2022-10-29T11:24:40;14.67;;;7.00;;
151;SDS011;68;48.792;9.164;2022-10-29T11:27:16;14.30;;;6.00;;
151;SDS011;68;48.792;9.164;2022-10-29T11:29:54;13.40;;;6.37;;
151;SDS011;68;48.792;9.164;2022-10-29T11:32:28;16.60;;;7.33;;
151;SDS011;68;48.792;9.164;2022-10-29T11:35:04;19.87;;;6.00;;
151;SDS011;68;48.792;9.164;2022-10-29T11:37:36;19.63;;;7.03;;
151;SDS011;68;48.792;9.164;2022-10-29T11:40:12;12.40;;;5.97;;
151;SDS011;68;48.792;9.164;2022-10-29T11:42:42;21.17;;;6.20;;
151;SDS011;68;48.792;9.164;2022-10-29T11:45:10;19.80;;;5.83;;
151;SDS011;68;48.792;9.164;2022-10-29T11:47:56;10.20;;;5.37;;
151;SDS011;68;48.792;9.164;2022-10-29T11:50:34;14.80;;;4.93;;
151;SDS011;68;48.792;9.164;2022-10-29T11:53:12;12.50;;;5.80;;
151;SDS011;68;48.792;9.164;2022-10-29T11:55:58;12.53;;;5.90;;
151;SDS011;68;48.792;9.164;2022-10-29T11:58:33;11.67;;;5.57;;
151;SDS011;68;48.792;9.164;2022-10-29T12:01:06;12.23;;;5.27;;
151;SDS011;68;48.792;9.164;2022-10-29T12:03:45;15.77;;;5.27;;
151;SDS011;68;48.792;9.164;2022-10-29T12:06:25;25.70;;;6.50;;
151;SDS011;68;48.792;9.164;2022-10-29T12:09:07;13.80;;;5.53;;
151;SDS011;68;48.792;9.164;2022-10-29T12:11:58;16.93;;;6.30;;
151;SDS011;68;48.792;9.164;2022-10-29T12:14:30;14.30;;;5.90;;
151;SDS011;68;48.792;9.164;2022-10-29T12:17:03;18.37;;;6.37;;
151;SDS011;68;48.792;9.164;2022-10-29T12:19:44;11.27;;;5.90;;
151;SDS011;68;48.792;9.164;2022-10-29T12:22:21;16.33;;;6.07;;
151;SDS011;68;48.792;9.164;2022-10-29T12:25:09;24.43;;;6.07;;
151;SDS011;68;48.792;9.164;2022-10-29T12:27:53;25.13;;;6.23;;
151;SDS011;68;48.792;9.164;2022-10-29T12:30:29;13.30;;;5.70;;
151;SDS011;68;48.792;9.164;2022-10-29T12:33:03;15.20;;;5.73;;
151;SDS011;68;48.792;9.164;2022-10-29T12:35:39;16.00;;;5.50;;
151;SDS011;68;48.792;9.164;2022-10-29T12:38:14;14.00;;;6.13;;
151;SDS011;68;48.792;9.164;2022-10-29T12:40:54;19.70;;;6.63;;
151;SDS011;68;48.792;9.164;2022-10-29T12:43:29;18.33;;;6.27;;
151;SDS011;68;48.792;9.164;2022-10-29T12:46:00;18.23;;;6.93;;
151;SDS011;68;48.792;9.164;2022-10-29T12:48:35;18.67;;;6.63;;
151;SDS011;68;48.792;9.164;2022-10-29T12:51:09;16.43;;;6.37;;
151;SDS011;68;48.792;9.164;2022-10-29T12:53:43;21.43;;;7.07;;
151;SDS011;68;48.792;9.164;2022-10-29T12:56:18;14.20;;;6.63;;
151;SDS011;68;48.792;9.164;2022-10-29T12:58:48;15.33;;;6.60;;
151;SDS011;68;48.792;9.164;2022-10-29T13:01:41;20.30;;;6.63;;
151;SDS011;68;48.792;9.164;2022-10-29T13:04:21;29.57;;;7.17;;
151;SDS011;68;48.792;9.164;2022-10-29T13:06:55;17.63;;;6.80;;
151;SDS011;68;48.792;9.164;2022-10-29T13:09:27;20.63;;;6.90;;
151;SDS011;68;48.792;9.164;2022-10-29T13:11:55;18.43;;;6.30;;
151;SDS011;68;48.792;9.164;2022-10-29T13:14:26;14.80;;;6.77;;
151;SDS011;68;48.792;9.164;2022-10-29T13:16:58;16.43;;;6.63;;
151;SDS011;68;48.792;9.164;2022-10-29T13:19:36;21.87;;;6.57;;
151;SDS011;68;48.792;9.164;2022-10-29T13:22:31;26.17;;;6.03;;
151;SDS011;68;48.792;9.164;2022-10-29T13:25:28;22.77;;;6.80;;
151;SDS011;68;48.792;9.164;2022-10-29T13:43:29;20.33;;;7.50;;
151;SDS011;68;48.792;9.164;2022-10-29T13:46:02;25.80;;;7.10;;
151;SDS011;68;48.792;9.164;2022-10-29T13:48:52;21.77;;;6.90;;
151;SDS011;68;48.792;9.164;2022-10-29T13:51:23;19.60;;;7.50;;
151;SDS011;68;48.792;9.164;2022-10-29T13:53:56;16.30;;;6.60;;
151;SDS011;68;48.792;9.164;2022-10-29T13:56:29;12.60;;;6.50;;
151;SDS011;68;48.792;9.164;2022-10-29T13:59:01;18.93;;;7.07;;
151;SDS011;68;48.792;9.164;2022-10-29T14:01:33;19.00;;;7.60;;
151;SDS011;68;48.792;9.164;2022-10-29T14:04:03;16.83;;;7.03;;
151;SDS011;68;48.792;9.164;2022-10-29T14:06:42;16.43;;;6.90;;
151;SDS011;68;48.792;9.164;2022-10-29T14:09:12;21.57;;;6.90;;
151;SDS011;68;48.792;9.164;2022-10-29T14:11:47;19.63;;;7.13;;
151;SDS011;68;48.792;9.164;2022-10-29T14:14:23;20.90;;;7.40;;
151;SDS011;68;48.792;9.164;2022-10-29T14:17:07;18.13;;;6.60;;
151;SDS011;68;48.792;9.164;2022-10-29T14:19:35;15.43;;;7.47;;
151;SDS011;68;48.792;9.164;2022-10-29T14:22:14;12.83;;;6.67;;
151;SDS011;68;48.792;9.164;2022-10-29T14:24:57;15.73;;;7.43;;
151;SDS011;68;48.792;9.164;2022-10-29T14:27:24;18.07;;;6.57;;
151;SDS011;68;48.792;9.164;2022-10-29T14:29:51;17.10;;;6.00;;
151;SDS011;68;48.792;9.164;2022-10-29T14:32:18;15.13;;;6.57;;
151;SDS011;68;48.792;9.164;2022-10-29T14:34:46;16.40;;;7.00;;
151;SDS011;68;48.792;9.164;2022-10-29T14:37:16;23.23;;;6.37;;
151;SDS011;68;48.792;9.164;2022-10-29T14:39:53;22.20;;;6.43;;
151;SDS011;68;48.792;9.164;2022-10-29T14:42:24;16.40;;;7.03;;
151;SDS011;68;48.792;9.164;2022-10-29T14:44:55;15.73;;;6.10;;
151;SDS011;68;48.792;9.164;2022-10-29T14:47:25;16.43;;;5.70;;
151;SDS011;68;48.792;9.164;2022-10-29T14:49:55;17.90;;;7.30;;
151;SDS011;68;48.792;9.164;2022-10-29T14:52:27;18.47;;;6.10;;
151;SDS011;68;48.792;9.164;2022-10-29T14:54:56;20.30;;;6.73;;
151;SDS011;68;48.792;9.164;2022-10-29T14:57:26;22.87;;;6.37;;
151;SDS011;68;48.792;9.164;2022-10-29T14:59:57;11.30;;;5.80;;
151;SDS011;68;48.792;9.164;2022-10-29T15:02:27;21.07;;;6.70;;
151;SDS011;68;48.792;9.164;2022-10-29T15:04:59;20.00;;;6.20;;
151;SDS011;68;48.792;9.164;2022-10-29T15:07:31;13.43;;;5.67;;
151;SDS011;68;48.792;9.164;2022-10-29T15:10:19;17.60;;;6.73;;
151;SDS011;68;48.792;9.164;2022-10-29T15:12:47;18.90;;;6.40;;
151;SDS011;68;48.792;9.164;2022-10-29T15:15:22;26.30;;;7.40;;
151;SDS011;68;48.792;9.164;2022-10-29T15:17:52;19.63;;;6.50;;
151;SDS011;68;48.792;9.164;2022-10-29T15:20:23;14.00;;;6.40;;
151;SDS011;68;48.792;9.164;2022-10-29T15:22:55;21.50;;;7.63;;
151;SDS011;68;48.792;9.164;2022-10-29T15:25:26;20.53;;;6.97;;
151;SDS011;68;48.792;9.164;2022-10-29T15:27:55;17.40;;;6.67;;
151;SDS011;68;48.792;9.164;2022-10-29T15:30:29;17.00;;;7.00;;
151;SDS011;68;48.792;9.164;2022-10-29T15:32:59;17.43;;;6.57;;
151;SDS011;68;48.792;9.164;2022-10-29T15:35:27;15.17;;;6.83;;
151;SDS011;68;48.792;9.164;2022-10-29T15:37:56;17.80;;;6.63;;
151;SDS011;68;48.792;9.164;2022-10-29T15:40:23;23.57;;;7.43;;
151;SDS011;68;48.792;9.164;2022-10-29T15:42:50;14.83;;;7.00;;
151;SDS011;68;48.792;9.164;2022-10-29T15:45:22;19.67;;;6.30;;
151;SDS011;68;48.792;9.164;2022-10-29T15:47:51;24.73;;;7.13;;
151;SDS011;68;48.792;9.164;2022-10-29T15:50:21;21.70;;;6.83;;
151;SDS011;68;48.792;9.164;2022-10-29T15:52:53;16.60;;;7.20;;
151;SDS011;68;48.792;9.164;2022-10-29T15:55:24;18.20;;;7.03;;
151;SDS011;68;48.792;9.164;2022-10-29T15:57:54;13.63;;;6.80;;
151;SDS011;68;48.792;9.164;2022-10-29T16:00:25;15.70;;;6.37;;
151;SDS011;68;48.792;9.164;2022-10-29T16:02:52;21.17;;;7.13;;
151;SDS011;68;48.792;9.164;2022-10-29T16:05:22;15.80;;;6.60;;
151;SDS011;68;48.792;9.164;2022-10-29T16:07:49;16.50;;;7.20;;
151;SDS011;68;48.792;9.164;2022-10-29T16:10:18;19.27;;;6.73;;
151;SDS011;68;48.792;9.164;2022-10-29T16:12:46;14.43;;;6.67;;
151;SDS011;68;48.792;9.164;2022-10-29T16:15:15;21.23;;;8.03;;
151;SDS011;68;48.792;9.164;2022-10-29T16:17:43;27.40;;;7.20;;
151;SDS011;68;48.792;9.164;2022-10-29T16:20:14;22.07;;;7.70;;
151;SDS011;68;48.792;9.164;2022-10-29T16:22:42;17.40;;;7.03;;
151;SDS011;68;48.792;9.164;2022-10-29T16:25:15;12.93;;;6.83;;